createdAt,value
2018-04-29T00:00:15.334Z,11.10
2018-04-29T00:02:43.896Z,11.00
2018-04-29T00:05:13.566Z,11.00
2018-04-29T00:07:42.346Z,11.00
2018-04-29T00:10:11.751Z,11.00
2018-04-29T00:12:44.986Z,11.00
2018-04-29T00:15:15.049Z,10.90
2018-04-29T00:17:44.798Z,10.90
2018-04-29T00:20:14.953Z,10.90
2018-04-29T00:22:43.660Z,10.90
2018-04-29T00:25:13.274Z,10.70
2018-04-29T00:27:44.616Z,10.70
2018-04-29T00:30:13.934Z,10.60
2018-04-29T00:32:43.444Z,10.60
2018-04-29T00:35:13.310Z,10.60
2018-04-29T00:37:42.882Z,10.60
2018-04-29T00:40:13.986Z,10.50
2018-04-29T00:42:44.250Z,10.40
2018-04-29T00:45:14.303Z,10.40
2018-04-29T00:47:43.792Z,10.30
2018-04-29T00:50:12.556Z,10.20
2018-04-29T00:52:40.781Z,10.20
2018-04-29T00:55:08.513Z,10.20
2018-04-29T00:57:36.092Z,10.10
2018-04-29T01:00:03.564Z,10.10
2018-04-29T01:02:31.012Z,10.00
2018-04-29T01:04:58.477Z,10.00
2018-04-29T01:07:25.920Z,9.90
2018-04-29T01:09:54.355Z,9.90
2018-04-29T01:12:22.431Z,9.90
2018-04-29T01:14:50.889Z,9.80
2018-04-29T01:17:20.984Z,9.70
2018-04-29T01:19:51.559Z,9.70
2018-04-29T01:22:19.799Z,9.70
2018-04-29T01:24:47.896Z,9.70
2018-04-29T01:27:15.401Z,9.60
2018-04-29T01:29:43.648Z,9.60
2018-04-29T01:32:11.089Z,9.60
2018-04-29T01:34:38.588Z,9.60
2018-04-29T01:37:06.038Z,9.50
2018-04-29T01:39:33.836Z,9.50
2018-04-29T01:42:01.904Z,9.40
2018-04-29T01:44:29.499Z,9.40
2018-04-29T01:46:58.711Z,9.30
2018-04-29T01:49:27.485Z,9.30
2018-04-29T01:51:54.997Z,9.30
2018-04-29T01:54:24.368Z,9.30
2018-04-29T01:56:53.297Z,9.20
2018-04-29T01:59:21.909Z,9.20
2018-04-29T02:01:51.830Z,9.20
2018-04-29T02:04:20.830Z,9.10
2018-04-29T02:06:51.522Z,9.00
2018-04-29T02:09:20.197Z,9.00
2018-04-29T02:11:48.471Z,9.00
2018-04-29T02:14:16.093Z,9.00
2018-04-29T02:16:43.536Z,8.90
2018-04-29T02:19:11.751Z,8.90
2018-04-29T02:21:39.256Z,8.80
2018-04-29T02:24:06.696Z,8.80
2018-04-29T02:26:34.168Z,8.80
2018-04-29T02:29:01.633Z,8.80
2018-04-29T02:31:29.553Z,8.70
2018-04-29T02:33:57.143Z,8.70
2018-04-29T02:36:24.734Z,8.70
2018-04-29T02:38:52.547Z,8.70
2018-04-29T02:41:20.038Z,8.60
2018-04-29T02:43:47.512Z,8.60
2018-04-29T02:46:14.983Z,8.60
2018-04-29T02:48:42.468Z,8.50
2018-04-29T02:51:10.182Z,8.50
2018-04-29T02:53:37.971Z,8.50
2018-04-29T02:56:06.016Z,8.50
2018-04-29T02:58:34.646Z,8.40
2018-04-29T03:01:04.183Z,8.40
2018-04-29T03:03:32.866Z,8.30
2018-04-29T03:06:01.460Z,8.30
2018-04-29T03:08:32.030Z,8.30
2018-04-29T03:11:01.233Z,8.20
2018-04-29T03:13:29.148Z,8.20
2018-04-29T03:15:57.608Z,8.20
2018-04-29T03:18:25.055Z,8.20
2018-04-29T03:20:52.567Z,8.30
2018-04-29T03:23:20.017Z,8.20
2018-04-29T03:25:47.457Z,8.30
2018-04-29T03:28:15.688Z,8.20
2018-04-29T03:30:43.164Z,8.20
2018-04-29T03:33:11.210Z,8.20
2018-04-29T03:35:39.054Z,8.20
2018-04-29T03:38:07.539Z,8.20
2018-04-29T03:40:35.836Z,8.10
2018-04-29T03:43:04.777Z,8.10
2018-04-29T03:45:33.775Z,8.10
2018-04-29T03:48:01.490Z,8.10
2018-04-29T03:50:29.541Z,8.10
2018-04-29T03:52:57.931Z,8.10
2018-04-29T03:55:25.727Z,8.10
2018-04-29T03:58:05.158Z,8.10
2018-04-29T04:00:57.488Z,8.10
2018-04-29T04:03:37.161Z,8.10
2018-04-29T04:06:04.727Z,8.10
2018-04-29T04:08:32.671Z,8.10
2018-04-29T04:11:00.826Z,8.10
2018-04-29T04:13:29.842Z,8.10
2018-04-29T04:16:00.354Z,8.20
2018-04-29T04:18:29.466Z,8.20
2018-04-29T04:20:58.158Z,8.20
2018-04-29T04:23:27.169Z,8.20
2018-04-29T04:25:54.880Z,8.20
2018-04-29T04:28:23.148Z,8.20
2018-04-29T04:30:50.593Z,8.20
2018-04-29T04:33:18.821Z,8.30
2018-04-29T04:35:46.268Z,8.20
2018-04-29T04:38:13.713Z,8.30
2018-04-29T04:40:41.953Z,8.40
2018-04-29T04:43:10.662Z,8.40
2018-04-29T04:45:38.913Z,8.40
2018-04-29T04:48:07.123Z,8.50
2018-04-29T04:50:35.998Z,8.60
2018-04-29T04:53:03.786Z,8.60
2018-04-29T04:55:32.206Z,8.70
2018-04-29T04:58:00.448Z,8.70
2018-04-29T05:00:29.053Z,8.80
2018-04-29T05:02:58.937Z,8.90
2018-04-29T05:05:28.642Z,9.00
2018-04-29T05:19:35.492Z,9.60
2018-04-29T07:10:22.513Z,11.50
2018-04-29T07:12:50.442Z,11.50
2018-04-29T07:54:28.182Z,13.20
2018-04-29T07:56:57.519Z,13.10
2018-04-29T07:59:25.237Z,13.10
2018-04-29T08:01:54.051Z,13.00
2018-04-29T08:04:24.786Z,13.00
2018-04-29T08:06:54.098Z,13.10
2018-04-29T08:09:24.355Z,13.10
2018-04-29T08:11:53.019Z,13.10
2018-04-29T08:14:22.718Z,13.20
2018-04-29T08:16:50.356Z,13.20
2018-04-29T08:19:18.917Z,13.20
2018-04-29T08:21:46.465Z,13.20
2018-04-29T08:24:13.912Z,13.20
2018-04-29T08:26:41.412Z,13.30
2018-04-29T08:29:08.947Z,13.30
2018-04-29T08:31:37.544Z,13.40
2018-04-29T08:34:05.051Z,13.30
2018-04-29T08:36:32.545Z,13.80
2018-04-29T08:39:00.105Z,14.20
2018-04-29T08:41:27.706Z,15.00
2018-04-29T08:43:56.023Z,15.60
2018-04-29T08:46:23.517Z,15.70
2018-04-29T08:48:51.823Z,15.70
2018-04-29T08:51:19.533Z,15.50
2018-04-29T08:53:47.555Z,15.40
2018-04-29T08:56:15.834Z,15.20
2018-04-29T08:58:43.316Z,15.10
2018-04-29T09:01:10.764Z,15.10
2018-04-29T09:03:38.247Z,15.00
2018-04-29T09:06:06.445Z,14.90
2018-04-29T09:08:33.887Z,14.90
2018-04-29T09:11:02.124Z,14.80
2018-04-29T09:13:30.074Z,14.80
2018-04-29T09:15:57.636Z,14.80
2018-04-29T09:18:25.189Z,14.80
2018-04-29T09:20:52.765Z,14.70
2018-04-29T09:23:21.550Z,14.80
2018-04-29T09:25:50.118Z,14.80
2018-04-29T09:28:18.068Z,15.00
2018-04-29T09:30:45.656Z,15.10
2018-04-29T09:33:13.420Z,15.50
2018-04-29T09:35:40.924Z,15.80
2018-04-29T09:38:08.380Z,16.10
2018-04-29T09:40:35.845Z,16.30
2018-04-29T09:43:03.296Z,16.30
2018-04-29T09:45:30.805Z,16.30
2018-04-29T09:47:58.282Z,16.40
2018-04-29T09:50:25.803Z,16.50
2018-04-29T09:52:54.401Z,16.70
2018-04-29T09:55:21.957Z,16.60
2018-04-29T09:57:49.817Z,16.80
2018-04-29T10:00:22.937Z,17.10
2018-04-29T10:02:51.564Z,17.20
2018-04-29T10:05:19.568Z,17.10
2018-04-29T10:07:49.273Z,17.30
2018-04-29T10:10:16.740Z,17.30
2018-04-29T10:12:44.233Z,18.00
2018-04-29T10:15:11.701Z,18.70
2018-04-29T10:17:39.172Z,19.40
2018-04-29T10:20:06.632Z,19.30
2018-04-29T10:22:34.091Z,19.10
2018-04-29T10:25:01.568Z,19.10
2018-04-29T10:27:29.080Z,19.80
2018-04-29T10:29:56.581Z,20.10
2018-04-29T10:32:24.101Z,19.60
2018-04-29T10:34:51.943Z,18.80
2018-04-29T10:37:19.510Z,18.30
2018-04-29T10:39:47.484Z,18.20
2018-04-29T10:42:16.021Z,18.00
2018-04-29T10:44:43.472Z,18.00
2018-04-29T10:47:10.956Z,18.10
2018-04-29T10:49:38.418Z,18.00
2018-04-29T10:52:05.884Z,18.10
2018-04-29T10:54:33.344Z,18.20
2018-04-29T10:57:00.808Z,18.60
2018-04-29T10:59:28.363Z,18.90
2018-04-29T11:01:55.896Z,19.40
2018-04-29T11:04:23.657Z,19.20
2018-04-29T11:06:51.655Z,19.40
2018-04-29T11:09:19.494Z,19.90
2018-04-29T11:11:47.077Z,20.30
2018-04-29T11:14:15.357Z,20.60
2018-04-29T11:16:42.809Z,20.60
2018-04-29T11:19:10.337Z,20.90
2018-04-29T11:21:37.786Z,21.10
2018-04-29T11:24:05.261Z,20.90
2018-04-29T11:26:32.732Z,20.60
2018-04-29T11:29:00.209Z,20.10
2018-04-29T11:31:28.292Z,19.80
2018-04-29T11:33:55.888Z,19.60
2018-04-29T11:36:23.549Z,19.40
2018-04-29T11:38:51.281Z,19.10
2018-04-29T11:41:20.854Z,18.90
2018-04-29T11:43:49.450Z,19.00
2018-04-29T11:46:16.969Z,19.00
2018-04-29T11:48:44.437Z,19.30
2018-04-29T11:51:12.340Z,19.40
2018-04-29T11:53:39.792Z,19.50
2018-04-29T11:56:07.252Z,19.90
2018-04-29T11:58:34.700Z,20.10
2018-04-29T12:01:03.253Z,19.80
2018-04-29T12:03:30.708Z,19.80
2018-04-29T12:05:58.275Z,19.80
2018-04-29T12:08:26.036Z,20.00
2018-04-29T12:10:53.543Z,20.30
2018-04-29T12:13:21.076Z,20.70
2018-04-29T12:15:49.149Z,21.00
2018-04-29T12:18:16.674Z,21.70
2018-04-29T12:20:44.128Z,21.90
2018-04-29T12:23:11.589Z,21.80
2018-04-29T12:25:39.042Z,21.70
2018-04-29T12:28:06.515Z,21.10
2018-04-29T12:30:34.019Z,21.60
2018-04-29T12:33:01.468Z,22.40
2018-04-29T12:35:28.959Z,23.20
2018-04-29T12:37:57.360Z,22.80
2018-04-29T12:40:24.852Z,22.70
2018-04-29T12:42:52.724Z,22.50
2018-04-29T12:45:21.136Z,21.80
2018-04-29T12:47:49.698Z,21.50
2018-04-29T12:50:17.224Z,21.30
2018-04-29T12:52:44.669Z,21.70
2018-04-29T12:55:12.880Z,23.50
2018-04-29T12:57:40.345Z,23.50
2018-04-29T13:00:07.878Z,24.90
2018-04-29T13:02:36.029Z,26.10
2018-04-29T13:05:03.476Z,26.10
2018-04-29T13:07:30.984Z,26.70
2018-04-29T13:09:58.445Z,26.30
2018-04-29T13:12:26.240Z,26.30
2018-04-29T13:14:53.692Z,26.50
2018-04-29T13:17:21.160Z,26.40
2018-04-29T13:19:48.628Z,27.30
2018-04-29T13:22:16.083Z,27.30
2018-04-29T13:24:43.573Z,26.70
2018-04-29T13:27:11.148Z,26.60
2018-04-29T13:29:38.695Z,26.80
2018-04-29T13:32:06.105Z,26.20
2018-04-29T13:34:33.601Z,26.20
2018-04-29T13:37:01.833Z,25.70
2018-04-29T13:39:29.321Z,25.60
2018-04-29T13:41:56.784Z,24.90
2018-04-29T13:44:24.225Z,24.20
2018-04-29T13:46:51.725Z,23.80
2018-04-29T13:49:19.192Z,23.60
2018-04-29T13:51:46.652Z,24.20
2018-04-29T13:54:14.136Z,24.60
2018-04-29T13:56:41.707Z,24.60
2018-04-29T13:59:09.181Z,24.50
2018-04-29T14:01:36.773Z,24.00
2018-04-29T14:04:04.387Z,23.40
2018-04-29T14:06:32.207Z,23.00
2018-04-29T14:08:59.902Z,22.60
2018-04-29T14:11:27.395Z,22.10
2018-04-29T14:13:55.041Z,22.00
2018-04-29T14:16:23.795Z,21.80
2018-04-29T14:18:51.383Z,22.00
2018-04-29T14:21:18.924Z,22.50
2018-04-29T14:23:46.437Z,22.90
2018-04-29T14:26:13.884Z,23.00
2018-04-29T14:28:42.096Z,22.60
2018-04-29T14:31:09.697Z,22.60
2018-04-29T14:33:37.109Z,22.40
2018-04-29T14:36:04.574Z,22.30
2018-04-29T14:38:32.137Z,22.20
2018-04-29T14:40:59.596Z,22.30
2018-04-29T14:43:27.068Z,22.50
2018-04-29T14:45:55.780Z,22.80
2018-04-29T14:48:23.309Z,22.80
2018-04-29T14:50:51.053Z,22.70
2018-04-29T14:53:19.476Z,22.60
2018-04-29T14:55:46.992Z,22.40
2018-04-29T14:58:14.461Z,22.30
2018-04-29T15:00:41.923Z,22.30
2018-04-29T15:03:10.144Z,22.30
2018-04-29T15:05:37.633Z,22.40
2018-04-29T15:08:05.865Z,22.50
2018-04-29T15:10:34.210Z,22.50
2018-04-29T15:13:01.674Z,22.40
2018-04-29T15:15:29.638Z,22.60
2018-04-29T15:17:57.248Z,22.80
2018-04-29T15:20:24.741Z,22.90
2018-04-29T15:22:53.008Z,23.00
2018-04-29T15:25:20.925Z,22.90
2018-04-29T15:27:48.474Z,22.90
2018-04-29T15:30:16.692Z,22.90
2018-04-29T15:32:44.155Z,22.90
2018-04-29T15:35:11.604Z,22.90
2018-04-29T15:37:39.835Z,23.00
2018-04-29T15:40:07.292Z,23.00
2018-04-29T15:42:34.741Z,23.00
2018-04-29T15:45:02.579Z,22.90
2018-04-29T15:47:30.065Z,22.90
2018-04-29T15:49:57.617Z,22.80
2018-04-29T15:52:25.142Z,22.70
2018-04-29T15:54:52.742Z,22.60
2018-04-29T15:57:20.353Z,22.50
2018-04-29T15:59:47.872Z,22.50
2018-04-29T16:02:15.354Z,22.40
2018-04-29T16:04:42.853Z,22.40
2018-04-29T16:07:10.312Z,22.40
2018-04-29T16:09:37.782Z,22.40
2018-04-29T16:12:05.248Z,22.50
2018-04-29T16:14:32.710Z,22.60
2018-04-29T16:17:00.156Z,22.70
2018-04-29T16:19:27.628Z,22.70
2018-04-29T16:21:55.139Z,22.80
2018-04-29T16:24:22.637Z,22.80
2018-04-29T16:26:51.171Z,22.90
2018-04-29T16:29:18.733Z,22.90
2018-04-29T16:31:46.237Z,22.90
2018-04-29T16:34:13.696Z,22.80
2018-04-29T16:36:41.157Z,22.80
2018-04-29T16:39:08.712Z,22.80
2018-04-29T16:41:36.920Z,22.60
2018-04-29T16:44:04.380Z,22.60
2018-04-29T16:46:31.842Z,22.60
2018-04-29T16:48:59.411Z,22.50
2018-04-29T16:51:26.885Z,22.50
2018-04-29T16:53:54.423Z,22.40
2018-04-29T16:56:22.894Z,22.30
2018-04-29T16:58:50.734Z,22.30
2018-04-29T17:01:19.633Z,22.20
2018-04-29T17:03:47.051Z,22.10
2018-04-29T17:06:14.570Z,22.00
2018-04-29T17:08:42.081Z,21.80
2018-04-29T17:11:09.548Z,21.70
2018-04-29T17:13:37.019Z,21.70
2018-04-29T17:16:04.503Z,21.60
2018-04-29T17:18:31.981Z,21.60
2018-04-29T17:20:59.741Z,21.60
2018-04-29T17:23:27.313Z,21.50
2018-04-29T17:25:54.794Z,21.40
2018-04-29T17:28:23.040Z,21.30
2018-04-29T17:30:50.787Z,21.30
2018-04-29T17:33:18.603Z,21.20
2018-04-29T17:35:46.928Z,21.10
2018-04-29T17:38:14.369Z,21.10
2018-04-29T17:40:41.838Z,21.10
2018-04-29T17:43:09.285Z,21.00
2018-04-29T17:45:36.749Z,20.90
2018-04-29T17:48:04.197Z,20.90
2018-04-29T17:50:32.428Z,20.80
2018-04-29T17:53:00.185Z,20.80
2018-04-29T17:55:28.437Z,20.70
2018-04-29T17:57:55.980Z,20.70
2018-04-29T18:00:23.492Z,20.70
2018-04-29T18:02:52.956Z,20.50
2018-04-29T18:05:20.817Z,20.50
2018-04-29T18:07:48.527Z,20.50
2018-04-29T18:10:16.016Z,20.40
2018-04-29T18:12:43.787Z,20.30
2018-04-29T18:15:11.257Z,20.20
2018-04-29T18:17:38.711Z,20.20
2018-04-29T18:20:06.201Z,20.10
2018-04-29T18:22:34.907Z,20.10
2018-04-29T18:25:02.560Z,20.10
2018-04-29T18:27:30.022Z,20.10
2018-04-29T18:29:57.567Z,20.10
2018-04-29T18:32:25.874Z,20.00
2018-04-29T18:34:53.381Z,20.00
2018-04-29T18:37:20.885Z,20.00
2018-04-29T18:39:49.183Z,20.00
2018-04-29T18:42:16.741Z,20.00
2018-04-29T18:44:44.336Z,19.90
2018-04-29T18:47:11.761Z,19.90
2018-04-29T18:49:39.245Z,19.90
2018-04-29T18:52:07.772Z,19.80
2018-04-29T18:54:36.728Z,19.70
2018-04-29T18:57:04.196Z,19.70
2018-04-29T18:59:31.756Z,19.70
2018-04-29T19:02:00.025Z,19.60
2018-04-29T19:04:28.279Z,19.60
2018-04-29T19:06:55.792Z,19.50
2018-04-29T19:09:24.069Z,19.40
2018-04-29T19:11:51.628Z,19.40
2018-04-29T19:14:19.960Z,19.50
2018-04-29T19:17:59.876Z,19.40
2018-04-29T19:20:27.390Z,19.40
2018-04-29T19:22:55.675Z,19.50
2018-04-29T19:25:23.177Z,19.40
2018-04-29T19:27:50.735Z,19.40
2018-04-29T19:30:18.248Z,19.50
2018-04-29T19:32:45.716Z,19.40
2018-04-29T19:35:13.283Z,19.50
2018-04-29T19:37:40.761Z,19.40
2018-04-29T19:40:08.328Z,19.40
2018-04-29T19:42:35.800Z,19.50
2018-04-29T19:45:03.284Z,19.50
2018-04-29T19:47:30.740Z,19.50
2018-04-29T19:49:58.197Z,19.40
2018-04-29T19:52:25.664Z,19.40
2018-04-29T19:54:53.140Z,19.40
2018-04-29T19:57:20.658Z,19.30
2018-04-29T19:59:48.287Z,19.30
2018-04-29T20:02:15.777Z,19.30
2018-04-29T20:04:43.249Z,19.30
2018-04-29T20:07:10.707Z,19.20
2018-04-29T20:09:38.184Z,19.20
2018-04-29T20:12:05.663Z,19.20
2018-04-29T20:14:33.112Z,19.10
2018-04-29T20:17:00.589Z,19.10
2018-04-29T20:19:28.064Z,19.10
2018-04-29T20:21:55.625Z,19.00
2018-04-29T20:24:23.168Z,19.00
2018-04-29T20:26:51.471Z,19.00
2018-04-29T20:29:18.996Z,19.00
2018-04-29T20:31:46.445Z,19.00
2018-04-29T20:34:13.917Z,19.00
2018-04-29T20:36:41.368Z,19.00
2018-04-29T20:39:08.841Z,18.90
2018-04-29T20:41:36.293Z,18.90
2018-04-29T20:44:03.765Z,18.90
2018-04-29T20:46:31.254Z,18.90
2018-04-29T20:48:58.761Z,18.80
2018-04-29T20:51:26.215Z,18.90
2018-04-29T20:53:53.689Z,18.90
2018-04-29T20:56:21.272Z,18.90
2018-04-29T20:58:48.793Z,19.00
2018-04-29T21:01:16.257Z,18.90
2018-04-29T21:03:43.710Z,18.90
2018-04-29T21:06:11.945Z,18.90
2018-04-29T21:08:39.427Z,18.90
2018-04-29T21:11:06.893Z,18.90
2018-04-29T21:13:34.379Z,18.80
2018-04-29T21:16:01.841Z,18.80
2018-04-29T21:18:29.317Z,18.90
2018-04-29T21:20:56.794Z,18.90
2018-04-29T21:23:24.272Z,18.90
2018-04-29T21:25:51.776Z,18.90
2018-04-29T21:28:19.337Z,18.90
2018-04-29T21:30:46.799Z,19.00
2018-04-29T21:33:15.028Z,19.00
2018-04-29T21:35:42.476Z,19.00
2018-04-29T21:38:09.952Z,19.00
2018-04-29T21:40:37.402Z,19.00
2018-04-29T21:43:05.637Z,19.00
2018-04-29T21:45:33.089Z,19.00
2018-04-29T21:48:00.541Z,19.00
2018-04-29T21:50:28.010Z,19.00
2018-04-29T21:52:55.488Z,19.10
2018-04-29T21:55:22.976Z,19.10
2018-04-29T21:57:50.498Z,19.10
2018-04-29T22:00:18.828Z,19.30
2018-04-29T22:02:46.316Z,19.20
2018-04-29T22:05:13.884Z,19.30
2018-04-29T22:07:41.341Z,19.30
2018-04-29T22:10:08.893Z,19.30
2018-04-29T22:12:37.120Z,19.20
2018-04-29T22:15:04.569Z,19.20
2018-04-29T22:17:32.240Z,19.00
2018-04-29T22:19:59.700Z,18.80
2018-04-29T22:22:27.184Z,18.70
2018-04-29T22:24:54.668Z,18.50
2018-04-29T22:27:22.194Z,18.30
2018-04-29T22:29:49.717Z,18.20
2018-04-29T22:32:17.288Z,18.10
2018-04-29T22:34:44.740Z,18.00
2018-04-29T22:37:12.297Z,17.70
2018-04-29T22:39:39.701Z,17.40
2018-04-29T22:42:07.148Z,17.20
2018-04-29T22:44:34.616Z,17.00
2018-04-29T22:47:02.113Z,16.90
2018-04-29T22:49:29.692Z,16.80
2018-04-29T22:51:57.165Z,16.70
2018-04-29T22:54:24.664Z,16.50
2018-04-29T22:56:53.431Z,16.30
2018-04-29T22:59:20.999Z,16.30
2018-04-29T23:01:48.589Z,16.20
2018-04-29T23:04:16.043Z,16.10
2018-04-29T23:06:43.508Z,15.90
2018-04-29T23:09:10.980Z,15.90
2018-04-29T23:11:38.448Z,15.80
2018-04-29T23:14:05.916Z,15.80
2018-04-29T23:16:33.380Z,15.70
2018-04-29T23:19:00.833Z,15.70
2018-04-29T23:21:28.359Z,15.60
2018-04-29T23:23:57.191Z,15.60
2018-04-29T23:26:25.108Z,15.50
2018-04-29T23:28:52.966Z,15.50
2018-04-29T23:31:20.663Z,15.50
2018-04-29T23:33:48.162Z,15.50
2018-04-29T23:36:15.704Z,15.50
2018-04-29T23:38:43.164Z,15.50
2018-04-29T23:41:10.621Z,15.50
2018-04-29T23:43:38.112Z,15.40
2018-04-29T23:46:05.564Z,15.40
2018-04-29T23:48:33.036Z,15.40
2018-04-29T23:51:00.496Z,15.40
2018-04-29T23:53:28.236Z,15.30
2018-04-29T23:55:55.798Z,15.40
2018-04-29T23:58:23.320Z,15.20
